Time;durP1;ratioP1;P1;durP2;ratioP2;P2;SDS_P1;SDS_P2;PMS_P1;PMS_P2;Temp;Humidity;BMP_temperature;BMP_pressure;BME280_temperature;BME280_humidity;BME280_pressure;Samples;Min_cycle;Max_cycle;Signal;HPM_P1;HPM_P2
2022/10/02 00:02:05;;;;;;;8.87;2.63;;;;;;;10.61;100.00;96525.25;5030630;28;20045;-73
2022/10/02 00:04:43;;;;;;;8.03;2.03;;;;;;;10.62;100.00;96531.31;5021262;28;20068;-73
2022/10/02 00:07:11;;;;;;;7.50;2.27;;;;;;;10.60;100.00;96526.22;4996622;28;20065;-73
2022/10/02 00:10:00;;;;;;;8.20;2.40;;;;;;;10.65;100.00;96549.44;5017446;28;20536;-73
2022/10/02 00:12:29;;;;;;;9.50;2.50;;;;;;;10.59;100.00;96550.84;4990803;28;20045;-74
2022/10/02 00:15:06;;;;;;;6.27;2.00;;;;;;;10.59;100.00;96540.34;4980130;28;20216;-74
2022/10/02 00:17:37;;;;;;;7.03;2.53;;;;;;;10.60;100.00;96542.00;5016343;28;20033;-73
2022/10/02 00:20:11;;;;;;;10.00;2.40;;;;;;;10.59;100.00;96529.81;5018134;28;20026;-73
2022/10/02 00:23:05;;;;;;;9.50;2.37;;;;;;;10.59;100.00;96529.00;5006853;28;20099;-74
2022/10/02 00:25:38;;;;;;;7.53;2.10;;;;;;;10.54;100.00;96526.00;5012807;28;20406;-74
2022/10/02 00:28:27;;;;;;;7.57;2.33;;;;;;;10.57;100.00;96531.78;5000682;28;20383;-74
2022/10/02 00:31:19;;;;;;;9.27;2.83;;;;;;;10.54;100.00;96534.72;5021183;28;20041;-74
2022/10/02 00:33:45;;;;;;;10.27;2.90;;;;;;;10.52;100.00;96549.81;5015021;28;20049;-72
2022/10/02 00:36:34;;;;;;;8.70;2.40;;;;;;;10.54;100.00;96552.31;5006741;28;20625;-74
2022/10/02 00:39:15;;;;;;;8.03;2.97;;;;;;;10.54;100.00;96547.88;5015105;28;20033;-74
2022/10/02 00:41:59;;;;;;;5.70;2.13;;;;;;;10.54;100.00;96553.13;5009979;28;20053;-73
2022/10/02 00:44:43;;;;;;;11.00;2.87;;;;;;;10.54;100.00;96566.28;5029403;28;20069;-73
2022/10/02 00:47:20;;;;;;;9.67;2.90;;;;;;;10.58;100.00;96558.91;4998898;28;20041;-73
2022/10/02 00:50:16;;;;;;;5.57;1.90;;;;;;;10.60;100.00;96562.22;5015668;28;20038;-73
2022/10/02 00:52:54;;;;;;;7.33;2.10;;;;;;;10.58;100.00;96561.53;5008734;28;20033;-74
2022/10/02 00:55:38;;;;;;;7.90;2.07;;;;;;;10.57;100.00;96578.31;5017720;28;20108;-74
2022/10/02 00:58:26;;;;;;;8.90;2.37;;;;;;;10.56;100.00;96566.97;5013139;28;20037;-74
2022/10/02 01:01:08;;;;;;;7.07;2.13;;;;;;;10.60;100.00;96568.31;5005520;28;20909;-74
2022/10/02 01:03:39;;;;;;;9.77;2.70;;;;;;;10.59;100.00;96577.16;5007545;28;20038;-74
2022/10/02 01:06:07;;;;;;;8.90;2.00;;;;;;;10.60;100.00;96567.47;5005973;28;20038;-74
2022/10/02 01:08:35;;;;;;;8.83;2.30;;;;;;;10.60;100.00;96564.84;4999015;28;20559;-73
2022/10/02 01:11:03;;;;;;;10.60;3.10;;;;;;;10.60;100.00;96554.34;5022251;28;20391;-72
2022/10/02 01:13:33;;;;;;;9.03;2.20;;;;;;;10.61;100.00;96561.22;5006240;28;20037;-74
2022/10/02 01:15:59;;;;;;;7.40;2.10;;;;;;;10.64;100.00;96562.75;5019860;28;20038;-74
2022/10/02 01:18:27;;;;;;;4.80;2.10;;;;;;;10.61;100.00;96556.78;5004314;28;20037;-73
2022/10/02 01:21:00;;;;;;;8.50;2.23;;;;;;;10.60;100.00;96563.03;5012504;28;20068;-73
2022/10/02 01:23:47;;;;;;;6.85;2.20;;;;;;;10.65;100.00;96572.28;5003856;28;20033;-73
2022/10/02 01:26:13;;;;;;;10.03;2.23;;;;;;;10.62;100.00;96555.81;5008989;28;20049;-74
2022/10/02 01:28:39;;;;;;;13.53;3.20;;;;;;;10.58;100.00;96565.00;5020083;28;20033;-73
2022/10/02 01:31:13;;;;;;;10.60;2.60;;;;;;;10.60;100.00;96573.56;5014081;28;20050;-72
2022/10/02 01:33:42;;;;;;;;;;;;;;;10.61;100.00;96569.94;5016755;28;20113;-73
2022/10/02 01:36:13;;;;;;;9.37;2.03;;;;;;;10.61;100.00;96561.22;5020636;28;19960;-72
2022/10/02 01:38:40;;;;;;;7.83;1.80;;;;;;;10.59;100.00;96581.59;5015173;28;20038;-73
2022/10/02 01:41:09;;;;;;;12.10;2.30;;;;;;;10.59;100.00;96571.88;5014619;28;20056;-74
2022/10/02 01:43:38;;;;;;;13.23;2.50;;;;;;;10.57;100.00;96565.97;5013038;28;20030;-73
2022/10/02 01:46:30;;;;;;;7.37;2.20;;;;;;;10.60;100.00;96578.00;5014831;28;20034;-73
2022/10/02 01:49:13;;;;;;;6.67;1.70;;;;;;;10.60;100.00;96567.47;5003362;28;20099;-73
2022/10/02 01:51:54;;;;;;;5.40;1.20;;;;;;;10.59;100.00;96571.06;5012270;28;20045;-73
2022/10/02 01:54:29;;;;;;;9.20;2.93;;;;;;;10.55;100.00;96578.44;5017826;28;20083;-75
2022/10/02 01:57:24;;;;;;;10.67;5.17;;;;;;;10.54;100.00;96579.41;5017167;28;20072;-73
2022/10/02 02:00:09;;;;;;;6.93;1.90;;;;;;;10.56;100.00;96581.88;5017062;28;20046;-73
2022/10/02 02:02:41;;;;;;;9.90;2.93;;;;;;;10.50;100.00;96574.63;5047296;28;20065;-75
2022/10/02 02:05:48;;;;;;;9.67;4.57;;;;;;;10.54;100.00;96579.41;5008003;28;20470;-75
2022/10/02 02:08:21;;;;;;;6.97;2.40;;;;;;;10.54;100.00;96570.72;5023485;28;20037;-75
2022/10/02 02:11:06;;;;;;;6.83;2.60;;;;;;;10.51;100.00;96577.09;5016177;28;20100;-75
2022/10/02 02:14:00;;;;;;;6.83;1.90;;;;;;;10.57;100.00;96581.75;5022644;28;20064;-75
2022/10/02 02:16:34;;;;;;;8.60;2.03;;;;;;;10.53;100.00;96571.66;5020619;28;20491;-74
2022/10/02 02:19:14;;;;;;;8.57;2.20;;;;;;;10.60;100.00;96567.47;4994670;28;20037;-75
2022/10/02 02:21:51;;;;;;;9.03;1.80;;;;;;;10.63;100.00;96569.81;5049038;28;20045;-75
2022/10/02 02:24:55;;;;;;;5.73;2.07;;;;;;;10.65;100.00;96572.28;5020329;28;20030;-75
2022/10/02 02:27:30;;;;;;;7.05;1.77;;;;;;;10.62;100.00;96568.97;4998286;28;20037;-75
2022/10/02 02:30:03;;;;;;;6.50;2.10;;;;;;;10.61;100.00;96575.22;5015708;28;20042;-75
2022/10/02 02:32:34;;;;;;;6.38;1.90;;;;;;;10.63;100.00;96582.97;5030755;28;20100;-76
2022/10/02 02:35:08;;;;;;;12.80;2.27;;;;;;;10.64;100.00;96599.56;5000166;28;20127;-75
2022/10/02 02:37:39;;;;;;;11.70;3.80;;;;;;;10.64;100.00;96608.28;5045964;28;20060;-75
2022/10/02 02:40:11;;;;;;;9.27;2.73;;;;;;;10.60;100.00;96609.56;4990106;28;20046;-75
2022/10/02 02:42:52;;;;;;;5.90;2.00;;;;;;;10.60;100.00;96610.38;5026991;28;20103;-74
2022/10/02 02:45:26;;;;;;;3.55;1.80;;;;;;;10.59;100.00;96600.81;5029297;28;20037;-75
2022/10/02 02:47:57;;;;;;;11.60;2.20;;;;;;;10.58;100.00;96596.53;5031576;28;20056;-75
2022/10/02 02:50:48;;;;;;;8.90;2.13;;;;;;;10.61;100.00;96595.44;5012623;28;20376;-75
2022/10/02 02:53:39;;;;;;;10.40;3.83;;;;;;;10.62;100.00;96589.19;4988328;28;20037;-75
2022/10/02 02:56:08;;;;;;;9.53;2.80;;;;;;;10.60;100.00;96583.25;4973904;28;20073;-75
2022/10/02 02:59:00;;;;;;;9.13;2.70;;;;;;;10.60;100.00;96578.00;4932553;28;20034;-75
2022/10/02 03:01:26;;;;;;;9.07;2.37;;;;;;;10.57;100.00;96584.38;4946082;28;20120;-75
2022/10/02 03:03:52;;;;;;;11.67;2.50;;;;;;;10.54;100.00;96587.31;4931091;28;20156;-73
2022/10/02 03:06:18;;;;;;;7.03;1.97;;;;;;;10.53;100.00;96588.28;4913791;28;21027;-72
2022/10/02 03:08:46;;;;;;;12.97;2.37;;;;;;;10.53;100.00;96588.28;4926718;28;20045;-73
2022/10/02 03:11:35;;;;;;;4.97;2.33;;;;;;;10.58;100.00;96591.28;4925134;28;20033;-73
2022/10/02 03:14:38;;;;;;;5.80;2.10;;;;;;;10.56;100.00;96593.25;4951896;28;20049;-72
2022/10/02 03:17:22;;;;;;;8.73;2.10;;;;;;;10.58;100.00;96591.28;4927393;28;20034;-73
2022/10/02 03:19:54;;;;;;;7.13;1.90;;;;;;;10.59;100.00;96584.22;4926091;28;21844;-72
2022/10/02 03:22:35;;;;;;;6.53;1.93;;;;;;;10.63;100.00;96585.59;4981527;28;20072;-72
2022/10/02 03:25:06;;;;;;;14.53;3.20;;;;;;;10.60;100.00;96584.09;4985681;28;21167;-72
2022/10/02 03:27:37;;;;;;;9.30;2.20;;;;;;;10.62;100.00;96589.19;4999343;28;21294;-73
2022/10/02 03:30:07;;;;;;;7.27;2.00;;;;;;;10.64;100.00;96591.69;5005434;28;20034;-73
2022/10/02 03:32:35;;;;;;;8.47;2.40;;;;;;;10.64;100.00;96586.41;5039259;28;20030;-73
2022/10/02 03:35:03;;;;;;;9.53;2.77;;;;;;;10.65;100.00;96590.69;5013907;28;20681;-73
2022/10/02 03:37:30;;;;;;;11.40;2.80;;;;;;;10.67;100.00;96578.22;5003639;28;20058;-73
2022/10/02 03:40:04;;;;;;;8.47;2.70;;;;;;;10.60;100.00;96576.19;5004520;28;20053;-73
2022/10/02 03:42:32;;;;;;;7.53;2.37;;;;;;;10.64;100.00;96579.34;5002759;28;20117;-73
2022/10/02 03:44:59;;;;;;;8.93;2.27;;;;;;;10.64;100.00;96583.78;5019743;28;20037;-73
2022/10/02 03:47:25;;;;;;;9.80;2.73;;;;;;;10.66;100.00;96587.91;4990748;28;20048;-73
2022/10/02 03:49:51;;;;;;;6.77;2.00;;;;;;;10.65;100.00;96581.00;5009245;28;20084;-73
2022/10/02 03:52:22;;;;;;;9.13;3.07;;;;;;;10.65;100.00;96591.50;4989587;28;21336;-73
2022/10/02 03:55:00;;;;;;;8.17;2.60;;;;;;;10.65;100.00;96595.94;5001613;28;20064;-73
2022/10/02 03:57:27;;;;;;;11.50;2.83;;;;;;;10.66;100.00;96592.34;5004737;28;20033;-73
2022/10/02 04:00:03;;;;;;;12.63;2.83;;;;;;;10.68;100.00;96591.22;5006826;28;20025;-73
2022/10/02 04:02:36;;;;;;;10.60;2.30;;;;;;;10.68;100.00;96585.13;5004018;28;20044;-73
2022/10/02 04:05:13;;;;;;;11.47;2.80;;;;;;;10.71;100.00;96588.28;5005231;28;20088;-73
2022/10/02 04:07:42;;;;;;;9.80;2.40;;;;;;;10.69;100.00;96584.16;5001793;28;20026;-73
2022/10/02 04:10:19;;;;;;;7.77;1.90;;;;;;;10.67;100.00;96589.56;5014752;28;20049;-73
2022/10/02 04:12:54;;;;;;;10.63;2.97;;;;;;;10.72;100.00;96597.00;4999835;28;20045;-72
2022/10/02 04:15:35;;;;;;;5.93;2.10;;;;;;;10.77;100.00;96592.13;5003900;28;20092;-73
2022/10/02 04:18:18;;;;;;;11.20;2.20;;;;;;;10.71;100.00;96595.34;5037918;28;20030;-73
2022/10/02 04:20:53;;;;;;;10.00;2.58;;;;;;;10.72;100.00;96591.72;5000604;28;20057;-73
2022/10/02 04:23:31;;;;;;;7.17;2.93;;;;;;;10.72;100.00;96602.25;5038775;28;20045;-73
2022/10/02 04:26:19;;;;;;;7.10;2.13;;;;;;;10.71;100.00;96605.88;4988586;28;20041;-73
2022/10/02 04:28:53;;;;;;;9.33;1.90;;;;;;;10.67;100.00;96600.09;4999678;28;20038;-73
2022/10/02 04:31:18;;;;;;;;;;;;;;;10.67;100.00;96594.00;5007445;28;20044;-72
2022/10/02 04:33:44;;;;;;;11.30;2.60;;;;;;;10.71;100.00;96597.97;5003376;28;19913;-73
2022/10/02 04:36:39;;;;;;;6.43;1.80;;;;;;;10.71;100.00;96600.63;5007434;28;20115;-73
2022/10/02 04:39:24;;;;;;;11.43;2.50;;;;;;;10.68;100.00;96609.63;5005987;28;20465;-73
2022/10/02 04:42:18;;;;;;;10.27;2.90;;;;;;;10.69;100.00;96608.63;5017233;28;20042;-73
2022/10/02 04:45:10;;;;;;;6.13;2.28;;;;;;;10.68;100.00;96600.91;5008314;28;20036;-73
2022/10/02 04:48:21;;;;;;;10.80;2.47;;;;;;;10.68;100.00;96595.66;5003435;28;20507;-73
2022/10/02 04:51:20;;;;;;;12.00;2.67;;;;;;;10.66;100.00;96589.69;4998615;28;21273;-73
2022/10/02 04:54:04;;;;;;;11.60;2.60;;;;;;;10.70;100.00;96601.59;5012744;28;20045;-73
2022/10/02 04:56:48;;;;;;;12.07;2.43;;;;;;;10.70;100.00;96601.59;5006866;28;20048;-73
2022/10/02 04:59:23;;;;;;;8.33;2.80;;;;;;;10.72;100.00;96607.50;5000930;28;20044;-73
2022/10/02 05:01:58;;;;;;;6.90;2.13;;;;;;;10.71;100.00;96608.50;5016276;28;20030;-73
2022/10/02 05:04:44;;;;;;;12.13;2.50;;;;;;;10.77;100.00;96608.72;5042521;28;20034;-73
2022/10/02 05:07:26;;;;;;;7.67;1.77;;;;;;;10.79;100.00;96611.19;5014930;28;20034;-74
2022/10/02 05:10:16;;;;;;;9.40;1.87;;;;;;;10.77;100.00;96605.28;5038151;28;20187;-72
2022/10/02 05:13:11;;;;;;;10.00;2.33;;;;;;;10.78;100.00;96605.09;5008822;28;20083;-73
2022/10/02 05:15:55;;;;;;;12.07;2.60;;;;;;;10.80;100.00;96615.50;4989602;28;20181;-73
2022/10/02 05:19:06;;;;;;;10.00;2.30;;;;;;;10.80;100.00;96610.25;5004982;28;20310;-73
2022/10/02 05:21:49;;;;;;;10.87;2.57;;;;;;;10.77;100.00;96615.78;5027872;28;20046;-73
2022/10/02 05:24:35;;;;;;;7.07;2.30;;;;;;;10.73;100.00;96610.00;5003889;28;20029;-74
2022/10/02 05:27:30;;;;;;;9.03;1.80;;;;;;;10.77;100.00;96615.78;5006030;28;20065;-73
2022/10/02 05:30:12;;;;;;;8.53;2.20;;;;;;;10.80;100.00;96613.69;5007467;28;20511;-73
2022/10/02 05:32:53;;;;;;;11.23;3.43;;;;;;;10.78;100.00;96609.56;4985488;28;20048;-73
2022/10/02 05:35:19;;;;;;;12.33;3.87;;;;;;;10.77;100.00;96616.63;5019180;28;20053;-73
2022/10/02 05:37:54;;;;;;;10.17;3.30;;;;;;;10.78;100.00;96606.91;4998894;28;20091;-74
2022/10/02 05:40:30;;;;;;;6.57;1.93;;;;;;;10.81;100.00;96609.25;5032054;28;20087;-73
2022/10/02 05:43:34;;;;;;;7.63;1.60;;;;;;;10.81;100.00;96609.25;5015117;28;20466;-74
2022/10/02 05:46:30;;;;;;;6.93;1.42;;;;;;;10.77;100.00;96597.38;5003328;28;20049;-74
2022/10/02 05:49:17;;;;;;;7.47;1.83;;;;;;;10.76;100.00;96596.53;5003425;28;20052;-74
2022/10/02 05:52:19;;;;;;;8.37;1.57;;;;;;;10.77;100.00;96600.00;5003402;28;20057;-73
2022/10/02 05:54:57;;;;;;;11.27;2.23;;;;;;;10.74;100.00;96600.31;5000245;28;20374;-73
2022/10/02 05:57:30;;;;;;;6.87;2.10;;;;;;;10.74;100.00;96602.94;5002939;28;20042;-73
2022/10/02 06:00:20;;;;;;;6.22;2.22;;;;;;;10.74;100.00;96600.31;5001000;28;20030;-73
2022/10/02 06:03:15;;;;;;;9.43;2.20;;;;;;;10.72;100.00;96602.25;5013701;28;20168;-74
2022/10/02 06:05:40;;;;;;;9.10;1.83;;;;;;;10.76;100.00;96611.50;4985104;28;20052;-74
2022/10/02 06:08:10;;;;;;;4.80;1.40;;;;;;;10.73;100.00;96617.06;5021032;28;20033;-74
2022/10/02 06:10:44;;;;;;;11.80;2.03;;;;;;;10.69;100.00;96613.91;4989289;28;20034;-74
2022/10/02 06:13:18;;;;;;;10.53;1.90;;;;;;;10.70;100.00;96612.94;5003830;28;20107;-74
2022/10/02 06:15:59;;;;;;;7.93;1.40;;;;;;;10.63;100.00;96619.78;5017587;28;20033;-74
2022/10/02 06:18:30;;;;;;;6.17;1.80;;;;;;;10.61;100.00;96619.91;4996242;28;20046;-74
2022/10/02 06:21:06;;;;;;;7.40;2.50;;;;;;;10.58;100.00;96627.28;5007457;28;20026;-74
2022/10/02 06:23:52;;;;;;;6.33;1.60;;;;;;;10.56;100.00;96624.81;4988202;28;20082;-74
2022/10/02 06:26:27;;;;;;;10.40;2.40;;;;;;;10.56;100.00;96637.13;5005000;28;20036;-74
2022/10/02 06:29:01;;;;;;;9.10;2.20;;;;;;;10.58;100.00;96640.44;4988588;28;20366;-74
2022/10/02 06:31:52;;;;;;;11.73;2.30;;;;;;;10.47;100.00;96635.41;5036217;28;20030;-74
2022/10/02 06:34:18;;;;;;;7.87;1.40;;;;;;;10.52;100.00;96630.50;5005440;28;20034;-74
2022/10/02 06:36:53;;;;;;;7.93;1.77;;;;;;;10.52;100.00;96627.88;5005736;28;20474;-74
2022/10/02 06:39:48;;;;;;;6.43;1.60;;;;;;;10.52;100.00;96633.94;5008828;28;20123;-74
2022/10/02 06:42:22;;;;;;;5.20;1.30;;;;;;;10.54;100.00;96625.94;4989641;28;20069;-74
2022/10/02 06:45:20;;;;;;;6.17;1.53;;;;;;;10.58;100.00;96620.22;5037929;28;20091;-74
2022/10/02 06:48:00;;;;;;;8.20;1.93;;;;;;;10.56;100.00;96614.28;5021445;28;20116;-74
2022/10/02 06:50:42;;;;;;;10.27;2.93;;;;;;;10.56;100.00;96622.19;5021512;28;20092;-74
2022/10/02 06:53:57;;;;;;;8.60;1.73;;;;;;;10.49;100.00;96618.47;5003949;28;20045;-74
2022/10/02 06:56:44;;;;;;;9.40;2.23;;;;;;;10.49;100.00;96617.66;5011708;28;20092;-74
2022/10/02 06:59:13;;;;;;;10.27;2.83;;;;;;;10.50;100.00;96616.69;5007390;28;20033;-74
2022/10/02 07:01:50;;;;;;;8.37;2.57;;;;;;;10.47;100.00;96620.44;5018925;28;20053;-74
2022/10/02 07:04:16;;;;;;;9.13;1.67;;;;;;;10.52;100.00;96610.28;5000698;28;20037;-74
2022/10/02 07:07:08;;;;;;;11.37;1.70;;;;;;;10.62;100.00;96612.84;4990165;28;20033;-73
2022/10/02 07:09:49;;;;;;;8.53;1.50;;;;;;;10.66;100.00;96608.13;5019488;28;20503;-74
2022/10/02 07:12:39;;;;;;;8.93;1.40;;;;;;;10.75;100.00;96605.41;5006962;28;20100;-74
2022/10/02 07:15:17;;;;;;;5.70;1.57;;;;;;;10.77;100.00;96610.53;5035091;28;20062;-74
2022/10/02 07:18:08;;;;;;;8.43;1.67;;;;;;;10.79;100.00;96609.38;5004779;28;20033;-74
2022/10/02 07:20:40;;;;;;;6.80;1.60;;;;;;;10.82;100.00;96595.94;5003466;28;20113;-74
2022/10/02 07:23:37;;;;;;;6.43;1.77;;;;;;;10.83;100.00;96612.53;5015173;28;20153;-75
2022/10/02 07:26:12;;;;;;;6.57;1.80;;;;;;;10.87;100.00;96600.75;5021483;28;20676;-74
2022/10/02 07:29:19;;;;;;;8.17;1.60;;;;;;;10.85;100.00;96590.38;4999471;28;20042;-74
2022/10/02 07:31:53;;;;;;;6.23;1.40;;;;;;;10.88;100.00;96588.41;5004062;28;20030;-74
2022/10/02 07:34:44;;;;;;;5.43;1.53;;;;;;;10.99;100.00;96588.16;5004907;28;20053;-74
2022/10/02 07:37:22;;;;;;;6.43;1.30;;;;;;;10.94;100.00;96590.44;5034403;28;20027;-74
2022/10/02 07:39:53;;;;;;;9.03;1.57;;;;;;;10.91;100.00;96581.03;5033346;28;20034;-74
2022/10/02 07:42:37;;;;;;;7.70;1.57;;;;;;;10.99;100.00;96589.00;5005199;28;20040;-74
2022/10/02 07:45:26;;;;;;;8.23;2.90;;;;;;;10.94;100.00;96585.19;5003605;28;20380;-74
2022/10/02 07:48:17;;;;;;;8.03;2.63;;;;;;;11.02;100.00;96578.16;5024733;28;20410;-74
2022/10/02 07:54:22;;;;;;;9.60;2.73;;;;;;;11.08;100.00;96595.97;5005057;28;20164;-74
2022/10/02 07:56:49;;;;;;;6.97;2.43;;;;;;;11.11;100.00;96594.84;4984678;28;20069;-75
2022/10/02 07:59:17;;;;;;;8.77;2.63;;;;;;;11.01;100.00;96586.22;5039615;28;20076;-75
2022/10/02 08:01:45;;;;;;;7.40;3.53;;;;;;;11.11;100.00;96592.22;5014397;28;21261;-74
2022/10/02 08:04:18;;;;;;;7.00;2.87;;;;;;;11.15;100.00;96584.84;5018948;28;20033;-75
2022/10/02 08:06:48;;;;;;;6.60;2.05;;;;;;;11.15;100.00;96576.94;5038032;28;20606;-74
2022/10/02 08:09:40;;;;;;;6.20;2.20;;;;;;;11.23;100.00;96574.34;5012500;28;20124;-73
2022/10/02 08:12:37;;;;;;;6.20;2.27;;;;;;;11.18;100.00;96574.81;5011799;28;20104;-74
2022/10/02 08:15:04;;;;;;;6.97;2.40;;;;;;;11.13;100.00;96568.34;4989659;28;20034;-75
2022/10/02 08:17:48;;;;;;;7.07;2.90;;;;;;;11.15;100.00;96566.41;5005700;28;20040;-75
2022/10/02 08:20:22;;;;;;;6.63;2.77;;;;;;;11.15;100.00;96567.22;4999344;28;20443;-77
2022/10/02 08:23:02;;;;;;;7.57;2.57;;;;;;;11.18;100.00;96568.75;4991110;28;20021;-74
2022/10/02 08:25:36;;;;;;;6.93;2.20;;;;;;;11.27;100.00;96571.28;5007643;28;20029;-74
2022/10/02 08:28:10;;;;;;;6.43;2.53;;;;;;;11.31;100.00;96574.41;5001675;28;20757;-74
2022/10/02 08:30:37;;;;;;;5.33;2.47;;;;;;;11.36;100.00;96574.75;5017088;28;20061;-74
2022/10/02 08:33:17;;;;;;;4.23;2.50;;;;;;;11.45;100.00;96568.56;5002508;28;20657;-74
2022/10/02 08:36:01;;;;;;;4.97;2.33;;;;;;;11.46;100.00;96557.03;5005458;28;20037;-74
2022/10/02 08:38:36;;;;;;;3.97;2.38;;;;;;;11.55;100.00;96563.19;5007753;28;20037;-74
2022/10/02 08:41:38;;;;;;;9.30;7.40;;;;;;;11.48;100.00;96556.91;5037818;28;20033;-74
2022/10/02 08:44:33;;;;;;;2.97;1.20;;;;;;;11.26;100.00;96545.91;5006099;28;20088;-74
2022/10/02 08:47:31;;;;;;;1.87;1.20;;;;;;;11.31;100.00;96554.19;5004098;28;20137;-74
2022/10/02 08:50:31;;;;;;;4.50;2.63;;;;;;;11.27;100.00;96550.22;5033344;28;21336;-74
2022/10/02 08:53:22;;;;;;;4.83;3.10;;;;;;;11.28;100.00;96557.13;5005036;28;20037;-74
2022/10/02 08:55:58;;;;;;;5.83;2.50;;;;;;;11.20;100.00;96543.91;5002247;28;20032;-74
2022/10/02 08:58:26;;;;;;;8.40;5.77;;;;;;;11.25;100.00;96546.91;4994917;28;20034;-74
2022/10/02 09:01:19;;;;;;;8.27;5.73;;;;;;;11.34;100.00;96539.88;4987437;28;20478;-74
2022/10/02 09:04:08;;;;;;;8.93;6.70;;;;;;;11.37;100.00;96542.19;5002621;28;20032;-74
2022/10/02 09:06:52;;;;;;;13.67;8.80;;;;;;;11.35;100.00;96540.69;5011793;28;20026;-74
2022/10/02 09:09:39;;;;;;;8.50;5.03;;;;;;;11.34;100.00;96531.97;5010373;28;20679;-74
2022/10/02 09:12:26;;;;;;;7.00;3.90;;;;;;;11.36;100.00;96535.25;5005150;28;20044;-74
2022/10/02 09:15:06;;;;;;;4.73;2.40;;;;;;;11.43;100.00;96531.03;5032789;28;20037;-74
2022/10/02 09:17:40;;;;;;;7.50;5.10;;;;;;;11.33;100.00;96520.63;5002979;28;20026;-74
2022/10/02 09:20:34;;;;;;;3.43;2.33;;;;;;;11.39;100.00;96511.25;5020657;28;20037;-73
2022/10/02 09:23:00;;;;;;;5.18;3.78;;;;;;;11.39;100.00;96506.00;5011269;28;20491;-75
2022/10/02 09:25:45;;;;;;;4.50;2.77;;;;;;;11.46;100.00;96506.19;5009238;28;20045;-75
2022/10/02 09:29:05;;;;;;;3.90;1.80;;;;;;;11.53;100.00;96502.75;5032065;28;20041;-75
2022/10/02 09:32:02;;;;;;;3.10;1.90;;;;;;;11.55;100.00;96508.69;4997902;28;20176;-76
2022/10/02 09:34:41;;;;;;;2.40;1.50;;;;;;;11.59;100.00;96508.38;5011757;28;20112;-73
2022/10/02 09:37:43;;;;;;;3.70;1.60;;;;;;;11.66;100.00;96501.50;5010836;28;20128;-75
2022/10/02 09:40:53;;;;;;;2.17;1.43;;;;;;;11.64;100.00;96517.47;5007291;28;20695;-74
2022/10/02 09:43:30;;;;;;;3.20;1.93;;;;;;;11.63;100.00;96518.44;4985302;28;20101;-74
2022/10/02 09:46:30;;;;;;;5.80;2.40;;;;;;;11.60;100.00;96531.91;4985844;28;20045;-74
2022/10/02 09:49:20;;;;;;;4.03;1.53;;;;;;;11.51;100.00;96525.00;5001859;28;20048;-75
2022/10/02 09:52:09;;;;;;;4.07;1.60;;;;;;;11.53;100.00;96523.00;5001751;28;20183;-74
2022/10/02 09:55:11;;;;;;;3.57;1.40;;;;;;;11.65;100.00;96515.66;4992593;28;20044;-75
2022/10/02 09:58:10;;;;;;;3.20;1.50;;;;;;;11.70;100.00;96516.84;5017939;28;20047;-73
2022/10/02 10:00:48;;;;;;;2.47;1.30;;;;;;;11.74;100.00;96512.91;5000884;28;20490;-74
2022/10/02 10:03:45;;;;;;;2.50;1.57;;;;;;;11.84;100.00;96502.25;4979514;28;20053;-74
2022/10/02 10:06:26;;;;;;;1.90;1.50;;;;;;;11.82;100.00;96501.53;5014149;28;20124;-74
2022/10/02 10:09:16;;;;;;;2.70;1.40;;;;;;;11.94;100.00;96505.56;4991623;28;20859;-74
2022/10/02 10:12:07;;;;;;;1.50;0.93;;;;;;;12.02;100.00;96510.03;4988894;28;20104;-75
2022/10/02 10:14:51;;;;;;;1.20;1.00;;;;;;;11.94;100.00;96516.13;5020343;28;20040;-74
2022/10/02 10:17:29;;;;;;;7.87;4.97;;;;;;;11.97;100.00;96502.63;5017397;28;20041;-74
2022/10/02 10:20:13;;;;;;;3.73;1.40;;;;;;;12.16;100.00;96516.47;5002361;28;20060;-74
2022/10/02 10:23:25;;;;;;;1.57;0.73;;;;;;;12.05;100.00;96511.53;4986743;28;20038;-74
2022/10/02 10:26:17;;;;;;;0.97;0.67;;;;;;;12.02;100.00;96526.66;4929324;28;20045;-74
2022/10/02 10:29:13;;;;;;;2.83;1.00;;;;;;;11.93;100.00;96522.34;5018478;28;20207;-74
2022/10/02 10:32:01;;;;;;;0.80;0.43;;;;;;;12.08;100.00;96513.84;5017267;28;20164;-74
2022/10/02 10:34:26;;;;;;;2.30;0.90;;;;;;;12.05;100.00;96516.81;5006605;28;20047;-75
2022/10/02 10:40:24;;;;;;;2.80;1.33;;;;;;;11.97;100.00;96518.44;5003016;28;20049;-75
2022/10/02 10:42:59;;;;;;;2.43;1.07;;;;;;;11.99;100.00;96519.09;5006093;28;20030;-74
2022/10/02 10:45:52;;;;;;;0.80;0.60;;;;;;;12.02;100.00;96529.31;5024073;28;20484;-74
2022/10/02 10:48:26;;;;;;;;;;;;;;;11.88;100.00;96540.47;5008668;28;20034;-74
2022/10/02 10:51:13;;;;;;;0.10;0.10;;;;;;;11.84;100.00;96525.97;5036458;28;19917;-75
2022/10/02 10:54:13;;;;;;;0.93;0.70;;;;;;;11.85;100.00;96538.16;5019796;28;20645;-73
2022/10/02 10:56:49;;;;;;;0.20;0.20;;;;;;;11.83;100.00;96545.34;5038831;28;20509;-74
2022/10/02 10:59:33;;;;;;;0.93;0.50;;;;;;;11.88;100.00;96534.38;5020100;28;20034;-73
2022/10/02 11:02:12;;;;;;;1.27;0.67;;;;;;;11.90;100.00;96521.84;5036137;28;20041;-73
2022/10/02 11:04:57;;;;;;;2.43;1.03;;;;;;;11.98;100.00;96533.25;5037286;28;20038;-73
2022/10/02 11:07:53;;;;;;;3.87;1.43;;;;;;;11.99;100.00;96532.25;5021534;28;21322;-74
2022/10/02 11:10:31;;;;;;;2.00;1.10;;;;;;;11.98;100.00;96517.44;5002470;28;20109;-75
2022/10/02 11:13:24;;;;;;;2.73;0.90;;;;;;;12.07;100.00;96528.00;5005285;28;20096;-76
2022/10/02 11:16:17;;;;;;;1.25;0.65;;;;;;;12.11;100.00;96518.78;5020825;28;20034;-74
2022/10/02 11:19:21;;;;;;;3.22;1.00;;;;;;;12.09;100.00;96504.94;5021759;28;20041;-73
2022/10/02 11:21:55;;;;;;;3.33;2.00;;;;;;;12.13;100.00;96524.72;5006136;28;20328;-74
2022/10/02 11:24:41;;;;;;;2.53;1.20;;;;;;;12.15;100.00;96517.47;5022088;28;20498;-74
2022/10/02 11:27:56;;;;;;;0.93;0.57;;;;;;;12.14;100.00;96535.13;5003519;28;20065;-74
2022/10/02 11:30:39;;;;;;;1.17;0.50;;;;;;;12.24;100.00;96537.59;5002802;28;20139;-74
2022/10/02 11:33:29;;;;;;;1.75;0.82;;;;;;;12.39;100.00;96520.16;5008743;28;20052;-74
2022/10/02 11:36:04;;;;;;;0.60;0.50;;;;;;;12.48;100.00;96524.44;5021629;28;21918;-74
2022/10/02 11:38:38;;;;;;;0.57;0.20;;;;;;;12.43;100.00;96523.28;5003776;28;20026;-74
2022/10/02 11:41:29;;;;;;;0.30;0.30;;;;;;;12.48;100.00;96524.44;5017911;28;20040;-74
2022/10/02 11:43:58;;;;;;;21.13;16.30;;;;;;;12.39;100.00;96541.25;5021883;28;20049;-74
2022/10/02 11:46:41;;;;;;;44.57;33.50;;;;;;;12.28;100.00;96544.19;5005458;28;20034;-72
2022/10/02 11:49:14;;;;;;;6.20;3.72;;;;;;;12.47;100.00;96532.50;5040754;28;20033;-73
2022/10/02 11:52:12;;;;;;;6.18;3.08;;;;;;;12.50;100.00;96537.47;5033007;28;20038;-74
2022/10/02 11:55:01;;;;;;;3.23;1.60;;;;;;;12.41;100.00;96536.63;5008642;28;20034;-73
2022/10/02 11:58:06;;;;;;;2.10;0.93;;;;;;;12.37;100.00;96534.47;5031828;28;20145;-73
2022/10/02 12:01:12;;;;;;;0.93;0.60;;;;;;;12.26;100.00;96540.88;5038358;28;20026;-74
2022/10/02 12:03:58;;;;;;;1.30;0.50;;;;;;;12.25;100.00;96533.97;5020301;28;20036;-74
2022/10/02 12:06:48;;;;;;;2.10;1.13;;;;;;;12.31;100.00;96533.34;5007800;28;20068;-74
2022/10/02 12:09:32;;;;;;;5.80;3.63;;;;;;;12.39;100.00;96535.97;4990516;28;20041;-73
2022/10/02 12:12:08;;;;;;;6.05;3.55;;;;;;;12.31;100.00;96524.56;5037777;28;20026;-73
2022/10/02 12:14:33;;;;;;;4.90;3.00;;;;;;;12.30;100.00;96521.13;5004921;28;20033;-74
2022/10/02 12:17:31;;;;;;;2.07;1.37;;;;;;;12.38;100.00;96513.22;5007051;28;20367;-73
2022/10/02 12:28:55;;;;;;;1.95;1.40;;;;;;;12.28;100.00;96528.38;4986163;28;20046;-73
2022/10/02 12:31:49;;;;;;;2.25;1.50;;;;;;;12.53;100.00;96512.56;4995542;28;20112;-73
2022/10/02 12:34:37;;;;;;;1.45;1.00;;;;;;;12.71;100.00;96523.81;4986895;28;20037;-74
2022/10/02 12:37:12;;;;;;;3.53;2.20;;;;;;;12.54;100.00;96537.94;4985193;28;20018;-73
2022/10/02 12:40:16;;;;;;;1.77;1.10;;;;;;;12.74;100.00;96510.25;4986701;28;20482;-74
2022/10/02 12:42:51;;;;;;;;;;;;;;;12.87;100.00;96513.22;4968567;28;20037;-73
2022/10/02 12:45:35;;;;;;;0.65;0.35;;;;;;;12.76;100.00;96510.09;5002793;28;21026;-73
2022/10/02 12:48:12;;;;;;;0.68;0.30;;;;;;;12.46;100.00;96507.13;5016212;28;20147;-73